Time;durP1;ratioP1;P1;durP2;ratioP2;P2;SDS_P1;SDS_P2;PMS_P1;PMS_P2;Temp;Humidity;BMP_temperature;BMP_pressure;BME280_temperature;BME280_humidity;BME280_pressure;Samples;Min_cycle;Max_cycle;Signal;HPM_P1;HPM_P2
2022/07/11 00:00:16;;;;;;;3.77;3.30;;;;;;;;;;5013480;28;20481;-55
2022/07/11 00:02:42;;;;;;;6.60;2.80;;;;;;;;;;5013767;28;20384;-52
2022/07/11 00:05:09;;;;;;;3.50;2.90;;;;;;;;;;5013703;28;20455;-53
2022/07/11 00:07:35;;;;;;;5.83;3.20;;;;;;;;;;5013643;28;20388;-52
2022/07/11 00:10:01;;;;;;;6.27;3.33;;;;;;;;;;5013579;28;20404;-52
2022/07/11 00:12:27;;;;;;;7.40;3.50;;;;;;;;;;5013333;28;20374;-52
2022/07/11 00:14:54;;;;;;;4.17;3.77;;;;;;;;;;5013441;28;20397;-53
2022/07/11 00:17:20;;;;;;;4.43;4.03;;;;;;;;;;5013360;28;20403;-54
2022/07/11 00:19:46;;;;;;;3.80;3.47;;;;;;;;;;5013566;28;20392;-56
2022/07/11 00:22:12;;;;;;;3.60;3.40;;;;;;;;;;5013173;28;20374;-53
2022/07/11 00:24:38;;;;;;;5.17;3.30;;;;;;;;;;5013507;28;20400;-52
2022/07/11 00:27:05;;;;;;;4.03;3.43;;;;;;;;;;5013189;28;20468;-53
2022/07/11 00:29:32;;;;;;;3.90;3.50;;;;;;;;;;5013181;28;20408;-55
2022/07/11 00:31:58;;;;;;;4.60;3.40;;;;;;;;;;5012963;28;20935;-53
2022/07/11 00:34:24;;;;;;;5.43;3.30;;;;;;;;;;5013231;28;20593;-53
2022/07/11 00:36:50;;;;;;;3.87;3.47;;;;;;;;;;5013000;28;20383;-52
2022/07/11 00:39:16;;;;;;;4.10;3.40;;;;;;;;;;5012959;28;20436;-52
2022/07/11 00:41:42;;;;;;;4.10;3.70;;;;;;;;;;5012856;28;20404;-52
2022/07/11 00:44:08;;;;;;;4.43;3.27;;;;;;;;;;5012887;28;20415;-53
2022/07/11 00:46:34;;;;;;;9.77;4.17;;;;;;;;;;5013323;28;20520;-54
2022/07/11 00:49:00;;;;;;;7.53;4.83;;;;;;;;;;5012793;28;20760;-53
2022/07/11 00:51:27;;;;;;;4.27;3.60;;;;;;;;;;5012590;28;20412;-54
2022/07/11 00:53:55;;;;;;;3.80;3.47;;;;;;;;;;5012477;28;20454;-54
2022/07/11 00:56:22;;;;;;;3.67;3.37;;;;;;;;;;5012803;28;20413;-54
2022/07/11 00:58:48;;;;;;;4.40;3.00;;;;;;;;;;5012615;28;20411;-53
2022/07/11 01:01:14;;;;;;;8.40;4.00;;;;;;;;;;5012131;28;20493;-52
2022/07/11 01:03:40;;;;;;;5.30;3.30;;;;;;;;;;5011968;28;20384;-53
2022/07/11 01:06:07;;;;;;;5.33;3.90;;;;;;;;;;5011960;28;20872;-53
2022/07/11 01:08:35;;;;;;;3.70;3.40;;;;;;;;;;5011456;28;20431;-52
2022/07/11 01:11:02;;;;;;;7.57;3.90;;;;;;;;;;5013054;28;20381;-53
2022/07/11 01:13:28;;;;;;;5.07;4.40;;;;;;;;;;5012452;28;20893;-53
2022/07/11 01:16:09;;;;;;;7.87;4.53;;;;;;;;;;5012570;28;20425;-53
2022/07/11 01:18:35;;;;;;;4.07;3.50;;;;;;;;;;5012728;28;20397;-53
2022/07/11 01:21:02;;;;;;;10.87;3.53;;;;;;;;;;5012111;28;20518;-53
2022/07/11 01:23:28;;;;;;;6.90;4.33;;;;;;;;;;5012349;28;20496;-53
2022/07/11 01:25:55;;;;;;;5.47;3.80;;;;;;;;;;5012176;28;20549;-52
2022/07/11 01:28:21;;;;;;;6.20;3.53;;;;;;;;;;5012255;28;20485;-52
2022/07/11 01:30:47;;;;;;;5.47;4.07;;;;;;;;;;5011959;28;20473;-51
2022/07/11 01:33:13;;;;;;;6.40;4.07;;;;;;;;;;5012306;28;20456;-52
2022/07/11 01:35:39;;;;;;;4.67;3.60;;;;;;;;;;5012256;28;20432;-52
2022/07/11 01:38:05;;;;;;;18.03;4.93;;;;;;;;;;5011990;28;20497;-52
2022/07/11 01:40:31;;;;;;;4.60;4.13;;;;;;;;;;5011779;28;20760;-52
2022/07/11 01:42:57;;;;;;;4.30;3.87;;;;;;;;;;5012229;28;20374;-53
2022/07/11 01:45:23;;;;;;;4.90;4.00;;;;;;;;;;5012183;28;20459;-54
2022/07/11 01:47:49;;;;;;;5.97;4.07;;;;;;;;;;5012000;28;20420;-52
2022/07/11 01:50:15;;;;;;;7.17;4.93;;;;;;;;;;5011777;28;20405;-54
2022/07/11 01:52:41;;;;;;;8.00;4.20;;;;;;;;;;5011980;28;20374;-57
2022/07/11 01:55:07;;;;;;;8.27;3.53;;;;;;;;;;5011937;28;20414;-54
2022/07/11 01:57:33;;;;;;;4.87;4.30;;;;;;;;;;5011919;28;20436;-55
2022/07/11 02:00:00;;;;;;;6.63;3.80;;;;;;;;;;5011884;28;20448;-52
2022/07/11 02:02:26;;;;;;;5.93;3.83;;;;;;;;;;5011682;28;20413;-52
2022/07/11 02:04:52;;;;;;;10.90;4.30;;;;;;;;;;5011897;28;20403;-55
2022/07/11 02:08:11;;;;;;;10.43;4.17;;;;;;;;;;5015096;28;20793;-53
2022/07/11 02:10:04;;;;;;;5.03;3.80;;;;;;;;;;5015697;28;20451;-53
2022/07/11 02:12:29;;;;;;;4.50;3.90;;;;;;;;;;5015690;28;20391;-52
2022/07/11 02:14:55;;;;;;;6.60;4.20;;;;;;;;;;5015771;28;20407;-53
2022/07/11 02:17:21;;;;;;;5.53;4.87;;;;;;;;;;5015630;28;20437;-52
2022/07/11 02:19:47;;;;;;;5.40;3.90;;;;;;;;;;5015602;28;20460;-52
2022/07/11 02:22:15;;;;;;;8.10;5.00;;;;;;;;;;5015464;28;20381;-54
2022/07/11 02:24:41;;;;;;;7.93;3.93;;;;;;;;;;5015677;28;20404;-52
2022/07/11 02:27:07;;;;;;;4.03;3.60;;;;;;;;;;5015428;28;20440;-52
2022/07/11 02:29:33;;;;;;;4.90;4.40;;;;;;;;;;5015571;28;20452;-52
2022/07/11 02:31:59;;;;;;;4.10;3.70;;;;;;;;;;5015188;28;20384;-52
2022/07/11 02:34:25;;;;;;;4.80;4.23;;;;;;;;;;5015389;28;20464;-52
2022/07/11 02:36:51;;;;;;;8.70;4.77;;;;;;;;;;5015206;28;20407;-52
2022/07/11 02:39:17;;;;;;;12.20;3.80;;;;;;;;;;5015130;28;20796;-52
2022/07/11 02:41:43;;;;;;;6.30;4.23;;;;;;;;;;5015172;28;20385;-53
2022/07/11 02:44:09;;;;;;;6.13;4.50;;;;;;;;;;5015417;28;20436;-53
2022/07/11 02:46:35;;;;;;;6.43;4.60;;;;;;;;;;5015110;28;20796;-52
2022/07/11 02:49:01;;;;;;;8.77;4.43;;;;;;;;;;5015002;28;20416;-55
2022/07/11 02:51:27;;;;;;;7.20;4.50;;;;;;;;;;5015111;28;20395;-52
2022/07/11 02:53:53;;;;;;;6.23;3.70;;;;;;;;;;5015088;28;20863;-52
2022/07/11 02:56:19;;;;;;;7.97;4.30;;;;;;;;;;5014994;28;20805;-52
2022/07/11 02:58:45;;;;;;;12.53;4.37;;;;;;;;;;5015028;28;20430;-52
2022/07/11 03:01:11;;;;;;;5.47;3.73;;;;;;;;;;5015104;28;20794;-53
2022/07/11 03:03:37;;;;;;;7.00;4.20;;;;;;;;;;5014764;28;20378;-53
2022/07/11 03:06:03;;;;;;;9.23;3.93;;;;;;;;;;5015066;28;20433;-52
2022/07/11 03:08:28;;;;;;;7.70;4.03;;;;;;;;;;5014701;28;20418;-53
2022/07/11 03:10:54;;;;;;;4.20;3.73;;;;;;;;;;5014488;28;20403;-54
2022/07/11 03:13:20;;;;;;;7.23;4.13;;;;;;;;;;5014663;28;20462;-55
2022/07/11 03:15:46;;;;;;;3.43;3.13;;;;;;;;;;5014819;28;20891;-52
2022/07/11 03:18:12;;;;;;;5.47;3.70;;;;;;;;;;5014089;28;20488;-52
2022/07/11 03:20:38;;;;;;;8.10;4.40;;;;;;;;;;5014308;28;20415;-53
2022/07/11 03:23:04;;;;;;;6.40;4.30;;;;;;;;;;5014711;28;20400;-52
2022/07/11 03:25:30;;;;;;;5.80;4.47;;;;;;;;;;5014615;28;20632;-52
2022/07/11 03:27:56;;;;;;;5.73;4.10;;;;;;;;;;5014515;28;20434;-54
2022/07/11 03:30:22;;;;;;;4.43;4.10;;;;;;;;;;5014539;28;20378;-53
2022/07/11 03:32:48;;;;;;;5.90;4.80;;;;;;;;;;5014352;28;20410;-54
2022/07/11 03:37:59;;;;;;;5.00;3.80;;;;;;;;;;5014398;28;20445;-52
2022/07/11 03:40:25;;;;;;;6.83;4.90;;;;;;;;;;5014005;28;20426;-53
2022/07/11 03:42:51;;;;;;;4.40;4.00;;;;;;;;;;5014165;28;20428;-53
2022/07/11 03:45:18;;;;;;;11.43;5.57;;;;;;;;;;5013984;28;20438;-53
2022/07/11 03:47:44;;;;;;;4.10;3.73;;;;;;;;;;5014064;28;20423;-54
2022/07/11 03:50:10;;;;;;;7.43;4.33;;;;;;;;;;5013897;28;20427;-53
2022/07/11 03:52:36;;;;;;;11.00;4.63;;;;;;;;;;5014126;28;20387;-52
2022/07/11 03:55:02;;;;;;;7.63;4.63;;;;;;;;;;5013984;28;20463;-53
2022/07/11 03:57:28;;;;;;;9.50;5.03;;;;;;;;;;5013769;28;20427;-55
2022/07/11 03:59:54;;;;;;;4.80;4.30;;;;;;;;;;5013689;28;20461;-52
2022/07/11 04:02:19;;;;;;;5.80;4.13;;;;;;;;;;5013695;28;20379;-53
2022/07/11 04:04:45;;;;;;;8.17;4.43;;;;;;;;;;5013910;28;20374;-52
2022/07/11 04:07:11;;;;;;;5.60;5.10;;;;;;;;;;5013546;28;20467;-52
2022/07/11 04:09:37;;;;;;;13.00;5.50;;;;;;;;;;5013668;28;20404;-52
2022/07/11 04:12:04;;;;;;;4.77;4.27;;;;;;;;;;5013436;28;20863;-53
2022/07/11 04:14:30;;;;;;;4.70;4.00;;;;;;;;;;5013599;28;20874;-53
2022/07/11 04:16:56;;;;;;;4.40;4.00;;;;;;;;;;5013900;28;20411;-53
2022/07/11 04:19:23;;;;;;;9.60;4.37;;;;;;;;;;5013417;28;20770;-52
2022/07/11 04:21:49;;;;;;;10.30;4.40;;;;;;;;;;5013220;28;20863;-52
2022/07/11 04:24:15;;;;;;;5.73;4.40;;;;;;;;;;5013555;28;20438;-52
2022/07/11 04:26:42;;;;;;;5.40;4.30;;;;;;;;;;5013231;28;20555;-52
2022/07/11 04:29:08;;;;;;;4.80;4.33;;;;;;;;;;5012441;28;20377;-53
2022/07/11 04:31:34;;;;;;;7.63;4.83;;;;;;;;;;5013110;28;20380;-52
2022/07/11 04:34:00;;;;;;;4.90;4.13;;;;;;;;;;5013190;28;20419;-52
2022/07/11 04:36:26;;;;;;;4.27;3.87;;;;;;;;;;5013274;28;20386;-52
2022/07/11 04:38:51;;;;;;;10.03;4.97;;;;;;;;;;5012924;28;20427;-52
2022/07/11 04:41:17;;;;;;;4.93;4.43;;;;;;;;;;5012916;28;20912;-52
2022/07/11 04:43:44;;;;;;;6.23;4.30;;;;;;;;;;5013036;28;20420;-54
2022/07/11 04:46:10;;;;;;;8.70;4.70;;;;;;;;;;5013005;28;20498;-52
2022/07/11 04:48:37;;;;;;;4.97;3.70;;;;;;;;;;5012885;28;20887;-52
2022/07/11 04:51:04;;;;;;;4.67;4.03;;;;;;;;;;5012725;28;20491;-55
2022/07/11 04:53:30;;;;;;;5.50;4.13;;;;;;;;;;5012839;28;20961;-53
2022/07/11 04:55:56;;;;;;;5.60;4.37;;;;;;;;;;5012842;28;20482;-55
2022/07/11 04:58:22;;;;;;;5.00;4.03;;;;;;;;;;5012661;28;20483;-52
2022/07/11 05:00:48;;;;;;;9.63;4.60;;;;;;;;;;5012403;28;20407;-52
2022/07/11 05:03:15;;;;;;;4.83;3.70;;;;;;;;;;5012725;28;20387;-52
2022/07/11 05:05:41;;;;;;;6.03;4.50;;;;;;;;;;5011883;28;20782;-55
2022/07/11 05:08:07;;;;;;;4.47;4.10;;;;;;;;;;5005992;28;20439;-54
2022/07/11 05:10:35;;;;;;;4.33;3.93;;;;;;;;;;5012138;28;20464;-52
2022/07/11 05:13:01;;;;;;;4.30;3.90;;;;;;;;;;5010637;28;20374;-55
2022/07/11 05:15:27;;;;;;;5.57;4.97;;;;;;;;;;5010750;28;20386;-53
2022/07/11 05:17:54;;;;;;;3.90;3.60;;;;;;;;;;5011421;28;20441;-55
2022/07/11 05:20:20;;;;;;;4.17;3.77;;;;;;;;;;5011733;28;20757;-55
2022/07/11 05:22:46;;;;;;;6.30;3.80;;;;;;;;;;5012445;28;20382;-52
2022/07/11 05:25:12;;;;;;;4.00;3.20;;;;;;;;;;5012264;28;20407;-55
2022/07/11 05:27:38;;;;;;;3.33;3.10;;;;;;;;;;5012269;28;20917;-55
2022/07/11 05:30:04;;;;;;;3.33;3.03;;;;;;;;;;5012134;28;20417;-56
2022/07/11 05:32:30;;;;;;;4.93;3.50;;;;;;;;;;5012200;28;20410;-52
2022/07/11 05:34:58;;;;;;;6.73;3.87;;;;;;;;;;5012384;28;20913;-53
2022/07/11 05:37:24;;;;;;;2.77;2.67;;;;;;;;;;5012151;28;20424;-53
2022/07/11 05:39:50;;;;;;;2.67;2.47;;;;;;;;;;5011904;28;20400;-53
2022/07/11 05:42:16;;;;;;;2.73;2.53;;;;;;;;;;5012018;28;20481;-53
2022/07/11 05:44:42;;;;;;;3.60;2.47;;;;;;;;;;5012369;28;20407;-52
2022/07/11 05:47:08;;;;;;;2.73;2.10;;;;;;;;;;5012083;28;20446;-53
2022/07/11 05:49:34;;;;;;;2.50;2.23;;;;;;;;;;5012430;28;20378;-52
2022/07/11 05:52:01;;;;;;;5.10;2.70;;;;;;;;;;5011867;28;20380;-52
2022/07/11 05:54:28;;;;;;;2.73;2.53;;;;;;;;;;5012010;28;20380;-53
2022/07/11 05:56:54;;;;;;;2.23;2.13;;;;;;;;;;5011917;28;20410;-52
2022/07/11 05:59:20;;;;;;;2.23;2.07;;;;;;;;;;5011935;28;20406;-55
2022/07/11 06:01:47;;;;;;;6.10;2.63;;;;;;;;;;5011705;28;20406;-54
2022/07/11 06:04:13;;;;;;;5.53;2.00;;;;;;;;;;5011958;28;20779;-54
2022/07/11 06:06:39;;;;;;;2.20;2.10;;;;;;;;;;5011799;28;20459;-55
2022/07/11 06:09:05;;;;;;;2.43;2.20;;;;;;;;;;5011826;28;20642;-52
2022/07/11 06:11:31;;;;;;;2.77;2.57;;;;;;;;;;5011649;28;20401;-53
2022/07/11 06:13:57;;;;;;;1.87;1.77;;;;;;;;;;5011959;28;20377;-52
2022/07/11 06:16:23;;;;;;;2.03;1.93;;;;;;;;;;5011873;28;20411;-52
2022/07/11 06:18:50;;;;;;;2.00;1.80;;;;;;;;;;5011786;28;20435;-52
2022/07/11 06:21:17;;;;;;;2.40;1.80;;;;;;;;;;5011597;28;20405;-52
2022/07/11 06:23:43;;;;;;;2.00;1.77;;;;;;;;;;5010381;28;20424;-52
2022/07/11 06:26:11;;;;;;;3.00;1.90;;;;;;;;;;5011699;28;20955;-54
2022/07/11 06:28:38;;;;;;;1.67;1.57;;;;;;;;;;5011991;28;20402;-54
2022/07/11 06:31:03;;;;;;;4.87;1.87;;;;;;;;;;5011534;28;20740;-52
2022/07/11 06:33:30;;;;;;;1.80;1.70;;;;;;;;;;5011749;28;20401;-54
2022/07/11 06:35:56;;;;;;;1.53;1.43;;;;;;;;;;5011647;28;20431;-52
2022/07/11 06:38:22;;;;;;;2.33;1.27;;;;;;;;;;5011464;28;20501;-52
2022/07/11 06:40:48;;;;;;;2.70;1.70;;;;;;;;;;5011348;28;20487;-53
2022/07/11 06:43:14;;;;;;;1.80;1.33;;;;;;;;;;5011624;28;20390;-54
2022/07/11 06:45:40;;;;;;;1.70;1.60;;;;;;;;;;5011514;28;20554;-53
2022/07/11 06:48:07;;;;;;;2.27;1.63;;;;;;;;;;5011526;28;20432;-52
2022/07/11 06:50:33;;;;;;;1.43;1.33;;;;;;;;;;5011278;28;20433;-52
2022/07/11 06:52:59;;;;;;;2.03;1.10;;;;;;;;;;5013948;28;20406;-52
2022/07/11 06:55:25;;;;;;;1.73;1.53;;;;;;;;;;5015394;28;20834;-53
2022/07/11 06:57:51;;;;;;;1.57;1.47;;;;;;;;;;5014956;28;20795;-52
2022/07/11 07:00:17;;;;;;;2.23;1.70;;;;;;;;;;5014724;28;20388;-53
2022/07/11 07:02:44;;;;;;;1.30;1.20;;;;;;;;;;5014986;28;20755;-54
2022/07/11 07:05:10;;;;;;;1.70;1.60;;;;;;;;;;5014796;28;20409;-52
2022/07/11 07:07:36;;;;;;;1.70;1.33;;;;;;;;;;5014727;28;20393;-53
2022/07/11 07:10:02;;;;;;;2.90;1.90;;;;;;;;;;5014753;28;20379;-52
2022/07/11 07:12:28;;;;;;;1.40;1.30;;;;;;;;;;5015325;28;20481;-52
2022/07/11 07:14:54;;;;;;;1.73;1.63;;;;;;;;;;5014695;28;20471;-54
2022/07/11 07:17:20;;;;;;;1.50;1.40;;;;;;;;;;5014579;28;20400;-53
2022/07/11 07:19:46;;;;;;;5.13;1.30;;;;;;;;;;5014395;28;20405;-53
2022/07/11 07:22:16;;;;;;;1.63;1.53;;;;;;;;;;5014428;28;20391;-55
2022/07/11 07:24:42;;;;;;;1.73;1.63;;;;;;;;;;5014639;28;20392;-53
2022/07/11 07:27:08;;;;;;;3.10;1.60;;;;;;;;;;5014421;28;20467;-52
2022/07/11 07:29:34;;;;;;;1.20;1.10;;;;;;;;;;5014390;28;20395;-52
2022/07/11 07:32:00;;;;;;;1.40;1.30;;;;;;;;;;5014226;28;20457;-53
2022/07/11 07:34:26;;;;;;;1.73;1.63;;;;;;;;;;5014397;28;20869;-54
2022/07/11 07:36:52;;;;;;;1.50;1.40;;;;;;;;;;5014172;28;20505;-52
2022/07/11 07:39:18;;;;;;;1.53;1.43;;;;;;;;;;5014141;28;20918;-54
2022/07/11 07:41:44;;;;;;;1.30;1.20;;;;;;;;;;5014090;28;20968;-53
2022/07/11 07:44:10;;;;;;;1.50;1.40;;;;;;;;;;5014213;28;20407;-52
2022/07/11 07:46:37;;;;;;;1.00;1.00;;;;;;;;;;5014126;28;20580;-54
2022/07/11 07:49:03;;;;;;;1.20;1.10;;;;;;;;;;5013931;28;20483;-54
2022/07/11 07:51:29;;;;;;;1.27;1.17;;;;;;;;;;5014041;28;20399;-53
2022/07/11 07:53:55;;;;;;;1.97;1.40;;;;;;;;;;5014003;28;20400;-53
2022/07/11 07:56:21;;;;;;;1.50;1.40;;;;;;;;;;5014047;28;20869;-52
2022/07/11 07:58:47;;;;;;;1.67;1.57;;;;;;;;;;5014021;28;20430;-53
2022/07/11 08:03:58;;;;;;;1.30;1.20;;;;;;;;;;5012943;28;20743;-53
2022/07/11 08:06:24;;;;;;;1.80;1.70;;;;;;;;;;5013487;28;20462;-53
2022/07/11 08:08:50;;;;;;;1.40;1.30;;;;;;;;;;5013251;28;20875;-53
2022/07/11 08:11:16;;;;;;;1.30;1.20;;;;;;;;;;5012964;28;20387;-52
2022/07/11 08:13:42;;;;;;;1.40;1.30;;;;;;;;;;5006769;28;20423;-54
2022/07/11 08:16:08;;;;;;;1.20;1.10;;;;;;;;;;5010955;28;20495;-54
2022/07/11 08:18:35;;;;;;;2.30;1.47;;;;;;;;;;5013018;28;20965;-54
2022/07/11 08:21:01;;;;;;;1.40;1.30;;;;;;;;;;5013296;28;20405;-52
2022/07/11 08:23:27;;;;;;;1.57;1.47;;;;;;;;;;5013620;28;20386;-52
2022/07/11 08:25:53;;;;;;;1.73;1.63;;;;;;;;;;5013172;28;20462;-53
2022/07/11 08:28:19;;;;;;;2.60;1.60;;;;;;;;;;5013192;28;20422;-54
2022/07/11 08:30:45;;;;;;;1.40;1.30;;;;;;;;;;5012966;28;20417;-54
2022/07/11 08:33:12;;;;;;;1.70;1.60;;;;;;;;;;5013563;28;20734;-55
2022/07/11 08:35:38;;;;;;;2.03;1.87;;;;;;;;;;5013561;28;20417;-54
2022/07/11 08:38:04;;;;;;;2.80;2.60;;;;;;;;;;5012490;28;20421;-54
2022/07/11 08:40:30;;;;;;;6.70;2.50;;;;;;;;;;5011146;28;20486;-55
2022/07/11 08:42:59;;;;;;;2.87;2.67;;;;;;;;;;5012577;28;20384;-54
2022/07/11 08:45:30;;;;;;;3.27;3.00;;;;;;;;;;5013118;28;20466;-52
2022/07/11 08:47:58;;;;;;;6.13;2.73;;;;;;;;;;5012969;28;20396;-53
2022/07/11 08:50:25;;;;;;;2.43;2.23;;;;;;;;;;5012730;28;20377;-52
2022/07/11 08:52:52;;;;;;;4.00;2.87;;;;;;;;;;5012955;28;20386;-52
2022/07/11 08:55:18;;;;;;;6.87;3.23;;;;;;;;;;5013107;28;20404;-53
2022/07/11 08:57:44;;;;;;;6.33;5.83;;;;;;;;;;5012769;28;20386;-54
2022/07/11 09:00:10;;;;;;;3.93;3.57;;;;;;;;;;5012614;28;20391;-53
2022/07/11 09:02:36;;;;;;;4.23;3.93;;;;;;;;;;5012735;28;20986;-53
2022/07/11 09:05:05;;;;;;;5.87;5.33;;;;;;;;;;5012686;28;20431;-53
2022/07/11 09:07:31;;;;;;;5.77;5.17;;;;;;;;;;5012718;28;20433;-53
2022/07/11 09:09:57;;;;;;;6.83;6.20;;;;;;;;;;5012592;28;20780;-53
2022/07/11 09:12:24;;;;;;;11.80;5.70;;;;;;;;;;5012421;28;20947;-52
2022/07/11 09:14:54;;;;;;;5.30;4.90;;;;;;;;;;5012187;28;20755;-52
2022/07/11 09:17:24;;;;;;;4.60;4.20;;;;;;;;;;5012514;28;20474;-52
2022/07/11 09:19:51;;;;;;;3.33;3.13;;;;;;;;;;5012357;28;20396;-52
2022/07/11 09:27:50;;;;;;;4.33;2.70;;;;;;;;;;5031798;28;20797;-53
2022/07/11 09:30:17;;;;;;;5.43;2.27;;;;;;;;;;5031712;28;20438;-53
2022/07/11 09:32:53;;;;;;;2.90;2.80;;;;;;;;;;5032287;28;20398;-53
2022/07/11 09:35:20;;;;;;;2.40;2.20;;;;;;;;;;5032005;28;20397;-53
2022/07/11 09:37:47;;;;;;;2.63;2.43;;;;;;;;;;5031695;28;20442;-53
2022/07/11 09:40:14;;;;;;;3.00;2.50;;;;;;;;;;5031490;28;20532;-53
2022/07/11 09:42:53;;;;;;;3.10;2.90;;;;;;;;;;5031979;28;20390;-53
2022/07/11 09:45:20;;;;;;;3.20;3.00;;;;;;;;;;5031894;28;20399;-53
2022/07/11 09:47:47;;;;;;;3.20;3.00;;;;;;;;;;5031775;28;20504;-53
2022/07/11 09:50:13;;;;;;;4.37;3.57;;;;;;;;;;5031527;28;20405;-53
2022/07/11 09:52:39;;;;;;;4.93;3.90;;;;;;;;;;5031624;28;20467;-53
2022/07/11 09:55:05;;;;;;;4.10;3.80;;;;;;;;;;5031804;28;20399;-53
2022/07/11 09:57:40;;;;;;;4.47;4.17;;;;;;;;;;5031725;28;20429;-53
2022/07/11 10:00:08;;;;;;;3.53;3.33;;;;;;;;;;5031222;28;20396;-54
2022/07/11 10:02:34;;;;;;;4.30;3.63;;;;;;;;;;5031497;28;20417;-53
2022/07/11 10:05:00;;;;;;;3.90;3.50;;;;;;;;;;5031579;28;20418;-53
2022/07/11 10:07:27;;;;;;;3.10;2.90;;;;;;;;;;5031510;28;20462;-53
2022/07/11 10:09:53;;;;;;;3.60;3.40;;;;;;;;;;5031548;28;20400;-52
2022/07/11 10:12:20;;;;;;;3.10;2.90;;;;;;;;;;5031493;28;21001;-53
2022/07/11 10:14:46;;;;;;;3.10;2.90;;;;;;;;;;5031664;28;20406;-52
2022/07/11 10:17:19;;;;;;;10.23;2.87;;;;;;;;;;5031570;28;20438;-52
2022/07/11 10:19:53;;;;;;;4.17;3.17;;;;;;;;;;5031500;28;20894;-54
2022/07/11 10:22:34;;;;;;;3.20;2.90;;;;;;;;;;5031346;28;20411;-52
2022/07/11 10:25:07;;;;;;;3.70;3.43;;;;;;;;;;5031487;28;20402;-53
2022/07/11 10:27:40;;;;;;;4.43;4.13;;;;;;;;;;5033294;28;20493;-52
2022/07/11 10:30:06;;;;;;;4.10;3.77;;;;;;;;;;5035085;28;20427;-53
2022/07/11 10:32:33;;;;;;;4.57;4.17;;;;;;;;;;5035249;28;20811;-53
2022/07/11 10:35:09;;;;;;;3.57;3.27;;;;;;;;;;5035504;28;20395;-52
2022/07/11 10:37:49;;;;;;;8.27;4.10;;;;;;;;;;5035071;28;20517;-56
2022/07/11 10:40:15;;;;;;;3.70;3.50;;;;;;;;;;5034873;28;20394;-53
2022/07/11 10:42:42;;;;;;;4.23;3.93;;;;;;;;;;5035195;28;20395;-52
2022/07/11 10:45:09;;;;;;;3.87;3.50;;;;;;;;;;5034887;28;20411;-53
2022/07/11 10:47:45;;;;;;;3.30;3.10;;;;;;;;;;5035054;28;20933;-54
2022/07/11 10:50:21;;;;;;;3.03;2.83;;;;;;;;;;5034813;28;20838;-53
2022/07/11 10:52:55;;;;;;;3.70;2.47;;;;;;;;;;5035053;28;20397;-53
2022/07/11 10:55:21;;;;;;;3.10;2.90;;;;;;;;;;5035168;28;20748;-52
2022/07/11 10:57:49;;;;;;;3.00;2.80;;;;;;;;;;5034750;28;20432;-54
2022/07/11 11:00:20;;;;;;;2.80;2.20;;;;;;;;;;5034512;28;20395;-55
2022/07/11 11:03:05;;;;;;;3.03;2.20;;;;;;;;;;5034905;28;20410;-53
2022/07/11 11:05:55;;;;;;;2.83;2.63;;;;;;;;;;5034916;28;20816;-53
2022/07/11 11:08:40;;;;;;;3.00;2.80;;;;;;;;;;5024443;28;20428;-53
2022/07/11 11:11:22;;;;;;;3.10;2.33;;;;;;;;;;5034417;28;20954;-53
2022/07/11 11:14:07;;;;;;;2.73;2.40;;;;;;;;;;5034524;28;20879;-54
2022/07/11 11:16:33;;;;;;;4.00;3.70;;;;;;;;;;5034535;28;20894;-55
2022/07/11 11:19:00;;;;;;;5.63;5.00;;;;;;;;;;5034389;28;20419;-53
2022/07/11 11:21:26;;;;;;;6.80;6.20;;;;;;;;;;5034217;28;20420;-53
2022/07/11 11:24:02;;;;;;;6.10;5.70;;;;;;;;;;5034365;28;20947;-53
2022/07/11 11:26:47;;;;;;;6.00;5.50;;;;;;;;;;5034382;28;20455;-54
2022/07/11 11:29:18;;;;;;;5.13;4.63;;;;;;;;;;5034165;28;20934;-52
2022/07/11 11:31:48;;;;;;;11.10;5.13;;;;;;;;;;5033914;28;20392;-53
2022/07/11 11:34:14;;;;;;;7.10;6.70;;;;;;;;;;5014461;28;20969;-53
2022/07/11 11:36:41;;;;;;;6.43;6.03;;;;;;;;;;5014359;28;20473;-53
2022/07/11 11:39:08;;;;;;;7.63;7.10;;;;;;;;;;5013795;28;20463;-54
2022/07/11 11:41:34;;;;;;;8.00;7.50;;;;;;;;;;5014070;28;20905;-52
2022/07/11 11:44:01;;;;;;;7.90;7.30;;;;;;;;;;5014167;28;20912;-54
2022/07/11 11:46:28;;;;;;;11.13;10.13;;;;;;;;;;5014028;28;20975;-52
2022/07/11 11:48:57;;;;;;;7.30;6.70;;;;;;;;;;5014194;28;20579;-53
2022/07/11 11:51:25;;;;;;;9.53;8.83;;;;;;;;;;5013738;28;20484;-53
2022/07/11 11:53:53;;;;;;;13.10;12.00;;;;;;;;;;5014021;28;20403;-53
2022/07/11 11:56:31;;;;;;;12.93;11.83;;;;;;;;;;5013928;28;20456;-55
2022/07/11 11:59:00;;;;;;;10.80;9.93;;;;;;;;;;5014058;28;20786;-53
2022/07/11 12:01:28;;;;;;;7.60;7.10;;;;;;;;;;5013570;28;20403;-53
2022/07/11 12:03:55;;;;;;;4.30;4.00;;;;;;;;;;5013840;28;20449;-53
2022/07/11 12:06:41;;;;;;;5.80;5.40;;;;;;;;;;5013802;28;20541;-53
2022/07/11 12:09:15;;;;;;;5.30;4.00;;;;;;;;;;5013569;28;20415;-53
2022/07/11 12:11:42;;;;;;;4.50;4.30;;;;;;;;;;5013408;28;20413;-53
2022/07/11 12:14:10;;;;;;;4.60;3.53;;;;;;;;;;5013812;28;20438;-53
2022/07/11 12:16:41;;;;;;;4.33;4.03;;;;;;;;;;5013573;28;20415;-53
2022/07/11 12:19:08;;;;;;;3.20;3.00;;;;;;;;;;5012360;28;20790;-52
2022/07/11 12:21:34;;;;;;;3.73;3.53;;;;;;;;;;5013020;28;20415;-53
2022/07/11 12:24:01;;;;;;;3.30;3.10;;;;;;;;;;5013211;28;20910;-53
2022/07/11 12:26:30;;;;;;;3.63;2.90;;;;;;;;;;5013497;28;20470;-54
2022/07/11 12:29:24;;;;;;;2.60;2.40;;;;;;;;;;5013091;28;20414;-53
2022/07/11 12:31:54;;;;;;;3.50;3.30;;;;;;;;;;5013321;28;20392;-53
2022/07/11 12:34:21;;;;;;;2.40;2.20;;;;;;;;;;5013043;28;20461;-53
2022/07/11 12:36:47;;;;;;;2.97;2.77;;;;;;;;;;5013114;28;20401;-53
2022/07/11 12:39:23;;;;;;;3.20;3.00;;;;;;;;;;5012992;28;20418;-52
2022/07/11 12:41:50;;;;;;;3.07;2.87;;;;;;;;;;5012926;28;20403;-53
2022/07/11 12:47:24;;;;;;;4.43;4.00;;;;;;;;;;5000680;28;20470;-53
2022/07/11 12:49:50;;;;;;;4.40;4.20;;;;;;;;;;5012221;28;20409;-53
2022/07/11 12:52:17;;;;;;;4.03;3.60;;;;;;;;;;5012701;28;20395;-52
2022/07/11 12:54:43;;;;;;;3.70;3.40;;;;;;;;;;5012939;28;20910;-53
2022/07/11 12:57:10;;;;;;;3.30;3.10;;;;;;;;;;5012555;28;20513;-53
2022/07/11 12:59:36;;;;;;;3.80;3.37;;;;;;;;;;5012780;28;20433;-54
2022/07/11 13:02:03;;;;;;;3.20;3.00;;;;;;;;;;5012635;28;20414;-54
2022/07/11 13:04:34;;;;;;;3.17;2.97;;;;;;;;;;5012922;28;20510;-52
2022/07/11 13:10:24;;;;;;;3.30;3.10;;;;;;;;;;4951631;29;20456;-53
2022/07/11 13:12:51;;;;;;;6.13;3.60;;;;;;;;;;4951986;29;20427;-53
2022/07/11 13:15:18;;;;;;;4.37;3.33;;;;;;;;;;4988913;28;20465;-53
2022/07/11 13:17:45;;;;;;;3.80;3.60;;;;;;;;;;5012403;28;20415;-54
2022/07/11 13:20:15;;;;;;;5.90;3.73;;;;;;;;;;5012871;28;20427;-56
2022/07/11 13:22:42;;;;;;;10.73;3.70;;;;;;;;;;5012459;28;20765;-54
2022/07/11 13:25:10;;;;;;;3.53;3.33;;;;;;;;;;5012296;28;20424;-53
2022/07/11 13:27:36;;;;;;;4.13;3.93;;;;;;;;;;5012244;28;20472;-53
2022/07/11 13:30:09;;;;;;;3.53;3.33;;;;;;;;;;5012253;28;20409;-53
2022/07/11 13:32:36;;;;;;;3.83;3.63;;;;;;;;;;5012247;28;20407;-53
2022/07/11 13:35:01;;;;;;;3.37;3.13;;;;;;;;;;5012246;28;20875;-53
2022/07/11 13:37:28;;;;;;;4.33;4.03;;;;;;;;;;5011916;28;20444;-52
2022/07/11 13:39:55;;;;;;;3.33;3.13;;;;;;;;;;5012236;28;20521;-53
2022/07/11 13:42:21;;;;;;;3.53;3.33;;;;;;;;;;5011975;28;20836;-54
2022/07/11 13:44:47;;;;;;;2.80;2.43;;;;;;;;;;5012030;28;20797;-54
2022/07/11 13:47:13;;;;;;;3.80;3.03;;;;;;;;;;5011792;28;20486;-53
2022/07/11 13:49:41;;;;;;;2.80;2.67;;;;;;;;;;5012166;28;20395;-53
2022/07/11 13:52:07;;;;;;;3.37;3.07;;;;;;;;;;5012115;28;20409;-53
2022/07/11 13:54:33;;;;;;;3.23;2.90;;;;;;;;;;5011962;28;20407;-52
2022/07/11 13:56:59;;;;;;;3.07;2.90;;;;;;;;;;5011991;28;20423;-53
2022/07/11 13:59:25;;;;;;;2.80;2.60;;;;;;;;;;5011988;28;20411;-53
2022/07/11 14:01:53;;;;;;;2.90;2.70;;;;;;;;;;5014257;28;20403;-52
2022/07/11 14:04:19;;;;;;;3.60;3.33;;;;;;;;;;5016128;28;20407;-55
2022/07/11 14:06:45;;;;;;;3.30;3.10;;;;;;;;;;5015881;28;20624;-52
2022/07/11 14:09:13;;;;;;;2.70;2.50;;;;;;;;;;5015952;28;20879;-55
2022/07/11 14:11:39;;;;;;;2.80;2.60;;;;;;;;;;5015742;28;20403;-53
2022/07/11 14:14:06;;;;;;;2.90;2.70;;;;;;;;;;5015860;28;20489;-53
2022/07/11 14:16:32;;;;;;;3.37;3.17;;;;;;;;;;5015734;28;20942;-53
2022/07/11 14:19:04;;;;;;;3.63;3.33;;;;;;;;;;5015719;28;20453;-53
2022/07/11 14:21:31;;;;;;;6.37;3.70;;;;;;;;;;5015504;28;20407;-53
2022/07/11 14:23:57;;;;;;;4.40;4.10;;;;;;;;;;5015607;28;20486;-54
2022/07/11 14:26:23;;;;;;;4.77;4.47;;;;;;;;;;5015507;28;20442;-53
2022/07/11 14:28:49;;;;;;;5.03;4.73;;;;;;;;;;5015395;28;20430;-53
2022/07/11 14:31:18;;;;;;;4.97;4.67;;;;;;;;;;5015401;28;20399;-53
2022/07/11 14:33:44;;;;;;;4.80;4.40;;;;;;;;;;5015620;28;20395;-53
2022/07/11 14:36:10;;;;;;;4.57;4.27;;;;;;;;;;5015400;28;20411;-53
2022/07/11 14:38:36;;;;;;;4.50;4.20;;;;;;;;;;5015572;28;20450;-54
2022/07/11 14:41:03;;;;;;;4.57;4.27;;;;;;;;;;5015118;28;20443;-53
2022/07/11 14:43:29;;;;;;;4.00;3.80;;;;;;;;;;5015161;28;20418;-54
2022/07/11 14:45:55;;;;;;;3.67;3.37;;;;;;;;;;5015359;28;20455;-53
2022/07/11 14:48:21;;;;;;;4.30;4.00;;;;;;;;;;5015129;28;20481;-53
2022/07/11 14:50:47;;;;;;;3.77;3.47;;;;;;;;;;5015013;28;20411;-53
2022/07/11 14:53:13;;;;;;;3.90;3.70;;;;;;;;;;5015052;28;20409;-55
2022/07/11 14:55:39;;;;;;;3.73;3.50;;;;;;;;;;5015185;28;20408;-55
2022/07/11 14:58:05;;;;;;;3.40;3.20;;;;;;;;;;5014993;28;20428;-55
2022/07/11 15:00:32;;;;;;;4.07;3.87;;;;;;;;;;5014932;28;20781;-55